Terminal Aerodrome Forecast
Issued by NWS

Home | Current Version | Previous Version | Graphics & Text | Print | Product List | Glossary On
Versions: 1 2 3 4 5 6 7 8 9 10 11 12 13 14 15 16 17 18 19 20 21 22 23 24 25 26 27 28 29 30 31 32 33 34 35 36 37 38 39
000
FTUS43 KLOT 241136
TAFMDW
TAF
KMDW 241136Z 2412/2512 12006KT P6SM SCT025
     FM241500 10012KT P6SM SCT020 BKN250
     FM242000 11013G18KT P6SM SCT020 OVC150
     FM250000 13014G19KT P6SM -SHRA BKN045 OVC070
     FM250200 16015G20KT 4SM -RA BR BKN009 OVC015 WS020/15045KT
     FM250900 21014KT 5SM BR VCSH BKN010 OVC015=

USA.gov is the U.S. government's official web portal to all federal, state and local government web resources and services.